sensor_id;sensor_type;location;lat;lon;timestamp;temperature;humidity
23231;DHT22;11784;49.818;8.632;2022-12-11T00:00:06;4.40;71.30
23231;DHT22;11784;49.818;8.632;2022-12-11T00:02:32;4.30;71.30
23231;DHT22;11784;49.818;8.632;2022-12-11T00:04:57;4.30;71.00
23231;DHT22;11784;49.818;8.632;2022-12-11T00:07:23;4.40;71.60
23231;DHT22;11784;49.818;8.632;2022-12-11T00:09:49;4.30;70.80
23231;DHT22;11784;49.818;8.632;2022-12-11T00:12:14;4.40;71.00
23231;DHT22;11784;49.818;8.632;2022-12-11T00:14:40;4.40;71.80
23231;DHT22;11784;49.818;8.632;2022-12-11T00:17:05;4.40;71.70
23231;DHT22;11784;49.818;8.632;2022-12-11T00:19:31;4.40;71.40
23231;DHT22;11784;49.818;8.632;2022-12-11T00:21:56;4.40;72.30
23231;DHT22;11784;49.818;8.632;2022-12-11T00:24:22;4.40;72.40
23231;DHT22;11784;49.818;8.632;2022-12-11T00:26:47;4.40;72.40
23231;DHT22;11784;49.818;8.632;2022-12-11T00:29:13;4.40;71.90
23231;DHT22;11784;49.818;8.632;2022-12-11T00:31:40;4.50;71.90
23231;DHT22;11784;49.818;8.632;2022-12-11T00:34:07;4.50;72.00
23231;DHT22;11784;49.818;8.632;2022-12-11T00:36:32;4.50;72.00
23231;DHT22;11784;49.818;8.632;2022-12-11T00:38:59;4.60;72.00
23231;DHT22;11784;49.818;8.632;2022-12-11T00:41:25;4.60;71.70
23231;DHT22;11784;49.818;8.632;2022-12-11T00:43:50;4.60;71.90
23231;DHT22;11784;49.818;8.632;2022-12-11T00:46:16;4.60;72.10
23231;DHT22;11784;49.818;8.632;2022-12-11T00:48:42;4.60;72.10
23231;DHT22;11784;49.818;8.632;2022-12-11T00:51:08;4.60;72.20
23231;DHT22;11784;49.818;8.632;2022-12-11T00:53:34;4.70;72.10
23231;DHT22;11784;49.818;8.632;2022-12-11T00:55:59;4.70;72.60
23231;DHT22;11784;49.818;8.632;2022-12-11T00:58:25;4.70;72.30
23231;DHT22;11784;49.818;8.632;2022-12-11T01:00:51;4.70;72.00
23231;DHT22;11784;49.818;8.632;2022-12-11T01:03:17;4.80;71.90
23231;DHT22;11784;49.818;8.632;2022-12-11T01:05:53;4.80;71.90
23231;DHT22;11784;49.818;8.632;2022-12-11T01:08:18;4.80;71.90
23231;DHT22;11784;49.818;8.632;2022-12-11T01:10:44;4.80;71.90
23231;DHT22;11784;49.818;8.632;2022-12-11T01:13:10;4.80;71.50
23231;DHT22;11784;49.818;8.632;2022-12-11T01:15:41;4.80;71.50
23231;DHT22;11784;49.818;8.632;2022-12-11T01:18:08;4.90;71.70
23231;DHT22;11784;49.818;8.632;2022-12-11T01:20:33;4.80;71.60
23231;DHT22;11784;49.818;8.632;2022-12-11T01:22:59;4.80;72.00
23231;DHT22;11784;49.818;8.632;2022-12-11T01:25:27;4.90;72.40
23231;DHT22;11784;49.818;8.632;2022-12-11T01:27:54;4.90;72.30
23231;DHT22;11784;49.818;8.632;2022-12-11T01:30:22;4.90;71.90
23231;DHT22;11784;49.818;8.632;2022-12-11T01:32:48;4.90;71.70
23231;DHT22;11784;49.818;8.632;2022-12-11T01:35:14;4.90;71.60
23231;DHT22;11784;49.818;8.632;2022-12-11T01:37:40;5.00;71.70
23231;DHT22;11784;49.818;8.632;2022-12-11T01:40:07;5.00;71.60
23231;DHT22;11784;49.818;8.632;2022-12-11T01:42:33;5.00;71.60
23231;DHT22;11784;49.818;8.632;2022-12-11T01:47:46;5.00;71.30
23231;DHT22;11784;49.818;8.632;2022-12-11T01:50:12;5.00;71.40
23231;DHT22;11784;49.818;8.632;2022-12-11T01:52:38;5.00;71.40
23231;DHT22;11784;49.818;8.632;2022-12-11T01:55:06;5.00;71.30
23231;DHT22;11784;49.818;8.632;2022-12-11T01:57:33;4.90;71.40
23231;DHT22;11784;49.818;8.632;2022-12-11T01:59:59;5.00;71.50
23231;DHT22;11784;49.818;8.632;2022-12-11T02:02:29;4.90;71.30
23231;DHT22;11784;49.818;8.632;2022-12-11T02:04:55;4.90;71.50
23231;DHT22;11784;49.818;8.632;2022-12-11T02:07:20;4.90;71.60
23231;DHT22;11784;49.818;8.632;2022-12-11T02:09:46;4.90;71.60
23231;DHT22;11784;49.818;8.632;2022-12-11T02:15:30;4.90;71.80
23231;DHT22;11784;49.818;8.632;2022-12-11T02:25:51;4.90;72.70
23231;DHT22;11784;49.818;8.632;2022-12-11T02:28:24;4.80;72.90
23231;DHT22;11784;49.818;8.632;2022-12-11T02:30:57;4.90;72.70
23231;DHT22;11784;49.818;8.632;2022-12-11T02:33:35;4.90;72.60
23231;DHT22;11784;49.818;8.632;2022-12-11T02:36:04;4.90;72.40
23231;DHT22;11784;49.818;8.632;2022-12-11T02:38:35;4.90;72.40
23231;DHT22;11784;49.818;8.632;2022-12-11T02:41:03;4.90;72.20
23231;DHT22;11784;49.818;8.632;2022-12-11T02:43:30;4.90;72.50
23231;DHT22;11784;49.818;8.632;2022-12-11T02:45:58;4.90;72.40
23231;DHT22;11784;49.818;8.632;2022-12-11T02:48:25;5.00;72.50
23231;DHT22;11784;49.818;8.632;2022-12-11T02:50:54;5.00;72.50
23231;DHT22;11784;49.818;8.632;2022-12-11T02:53:23;5.00;72.50
23231;DHT22;11784;49.818;8.632;2022-12-11T02:55:55;5.00;73.00
23231;DHT22;11784;49.818;8.632;2022-12-11T02:58:29;5.00;73.30
23231;DHT22;11784;49.818;8.632;2022-12-11T03:00:55;5.00;72.80
23231;DHT22;11784;49.818;8.632;2022-12-11T03:03:21;5.00;72.80
23231;DHT22;11784;49.818;8.632;2022-12-11T03:05:47;5.10;73.20
23231;DHT22;11784;49.818;8.632;2022-12-11T03:08:12;5.10;73.00
23231;DHT22;11784;49.818;8.632;2022-12-11T03:10:43;5.10;73.40
23231;DHT22;11784;49.818;8.632;2022-12-11T03:13:10;5.10;72.70
23231;DHT22;11784;49.818;8.632;2022-12-11T03:15:40;5.10;72.50
23231;DHT22;11784;49.818;8.632;2022-12-11T03:18:18;5.10;72.30
23231;DHT22;11784;49.818;8.632;2022-12-11T03:21:04;5.20;72.70
23231;DHT22;11784;49.818;8.632;2022-12-11T03:23:45;5.20;72.80
23231;DHT22;11784;49.818;8.632;2022-12-11T03:26:14;5.20;72.80
23231;DHT22;11784;49.818;8.632;2022-12-11T03:28:53;5.20;73.00
23231;DHT22;11784;49.818;8.632;2022-12-11T03:31:44;5.20;73.00
23231;DHT22;11784;49.818;8.632;2022-12-11T03:34:26;5.20;73.40
23231;DHT22;11784;49.818;8.632;2022-12-11T03:36:53;5.10;73.90
23231;DHT22;11784;49.818;8.632;2022-12-11T03:39:41;5.20;73.70
23231;DHT22;11784;49.818;8.632;2022-12-11T03:42:11;5.20;74.60
23231;DHT22;11784;49.818;8.632;2022-12-11T03:44:38;5.20;74.80
23231;DHT22;11784;49.818;8.632;2022-12-11T03:47:06;5.20;74.60
23231;DHT22;11784;49.818;8.632;2022-12-11T03:49:41;5.20;75.00
23231;DHT22;11784;49.818;8.632;2022-12-11T03:52:09;5.20;74.70
23231;DHT22;11784;49.818;8.632;2022-12-11T03:54:37;5.30;74.80
23231;DHT22;11784;49.818;8.632;2022-12-11T03:57:04;5.30;74.40
23231;DHT22;11784;49.818;8.632;2022-12-11T03:59:31;5.30;74.00
23231;DHT22;11784;49.818;8.632;2022-12-11T04:01:57;5.30;73.90
23231;DHT22;11784;49.818;8.632;2022-12-11T04:04:22;5.30;73.90
23231;DHT22;11784;49.818;8.632;2022-12-11T04:06:48;5.30;74.20
23231;DHT22;11784;49.818;8.632;2022-12-11T04:09:13;5.30;74.20
23231;DHT22;11784;49.818;8.632;2022-12-11T04:11:39;5.30;74.30
23231;DHT22;11784;49.818;8.632;2022-12-11T04:14:10;5.30;74.20
23231;DHT22;11784;49.818;8.632;2022-12-11T04:16:55;5.30;74.20
23231;DHT22;11784;49.818;8.632;2022-12-11T04:19:22;5.30;74.20
23231;DHT22;11784;49.818;8.632;2022-12-11T04:22:12;5.30;74.50
23231;DHT22;11784;49.818;8.632;2022-12-11T04:24:56;5.20;74.50
23231;DHT22;11784;49.818;8.632;2022-12-11T04:27:22;5.30;74.60
23231;DHT22;11784;49.818;8.632;2022-12-11T04:30:09;5.30;74.70
23231;DHT22;11784;49.818;8.632;2022-12-11T04:32:35;5.30;74.40
23231;DHT22;11784;49.818;8.632;2022-12-11T04:35:00;5.30;74.40
23231;DHT22;11784;49.818;8.632;2022-12-11T04:37:27;5.30;74.50
23231;DHT22;11784;49.818;8.632;2022-12-11T04:39:52;5.30;74.80
23231;DHT22;11784;49.818;8.632;2022-12-11T04:42:18;5.30;74.90
23231;DHT22;11784;49.818;8.632;2022-12-11T04:44:43;5.30;74.70
23231;DHT22;11784;49.818;8.632;2022-12-11T04:47:09;5.30;74.80
23231;DHT22;11784;49.818;8.632;2022-12-11T04:49:34;5.30;74.90
23231;DHT22;11784;49.818;8.632;2022-12-11T04:52:00;5.30;74.80
23231;DHT22;11784;49.818;8.632;2022-12-11T04:54:28;5.30;75.20
23231;DHT22;11784;49.818;8.632;2022-12-11T04:56:54;5.30;75.20
23231;DHT22;11784;49.818;8.632;2022-12-11T04:59:19;5.30;75.40
23231;DHT22;11784;49.818;8.632;2022-12-11T05:01:45;5.30;75.40
23231;DHT22;11784;49.818;8.632;2022-12-11T05:04:11;5.30;75.30
23231;DHT22;11784;49.818;8.632;2022-12-11T05:06:36;5.30;75.20
23231;DHT22;11784;49.818;8.632;2022-12-11T05:09:02;5.30;75.60
23231;DHT22;11784;49.818;8.632;2022-12-11T05:11:28;5.20;76.10
23231;DHT22;11784;49.818;8.632;2022-12-11T05:13:53;5.30;75.60
23231;DHT22;11784;49.818;8.632;2022-12-11T05:16:19;5.30;75.40
23231;DHT22;11784;49.818;8.632;2022-12-11T05:18:44;5.30;75.00
23231;DHT22;11784;49.818;8.632;2022-12-11T05:21:13;5.30;75.20
23231;DHT22;11784;49.818;8.632;2022-12-11T05:23:40;5.30;75.00
23231;DHT22;11784;49.818;8.632;2022-12-11T05:26:09;5.30;74.90
23231;DHT22;11784;49.818;8.632;2022-12-11T05:28:36;5.30;75.20
23231;DHT22;11784;49.818;8.632;2022-12-11T05:31:06;5.30;75.20
23231;DHT22;11784;49.818;8.632;2022-12-11T05:33:32;5.30;75.20
23231;DHT22;11784;49.818;8.632;2022-12-11T05:35:58;5.30;75.60
23231;DHT22;11784;49.818;8.632;2022-12-11T05:38:24;5.30;75.50
23231;DHT22;11784;49.818;8.632;2022-12-11T05:40:57;5.30;75.60
23231;DHT22;11784;49.818;8.632;2022-12-11T05:43:24;5.30;76.00
23231;DHT22;11784;49.818;8.632;2022-12-11T05:45:50;5.20;75.90
23231;DHT22;11784;49.818;8.632;2022-12-11T05:48:15;5.20;76.00
23231;DHT22;11784;49.818;8.632;2022-12-11T05:50:41;5.30;76.10
23231;DHT22;11784;49.818;8.632;2022-12-11T05:53:06;5.30;76.20
23231;DHT22;11784;49.818;8.632;2022-12-11T05:55:35;5.30;76.20
23231;DHT22;11784;49.818;8.632;2022-12-11T05:58:01;5.30;76.70
23231;DHT22;11784;49.818;8.632;2022-12-11T06:00:26;5.30;76.20
23231;DHT22;11784;49.818;8.632;2022-12-11T06:02:52;5.30;76.30
23231;DHT22;11784;49.818;8.632;2022-12-11T06:05:17;5.30;76.30
23231;DHT22;11784;49.818;8.632;2022-12-11T06:07:43;5.30;76.40
23231;DHT22;11784;49.818;8.632;2022-12-11T06:10:08;5.40;76.60
23231;DHT22;11784;49.818;8.632;2022-12-11T06:12:34;5.30;77.30
23231;DHT22;11784;49.818;8.632;2022-12-11T06:15:00;5.40;76.00
23231;DHT22;11784;49.818;8.632;2022-12-11T06:17:26;5.40;75.70
23231;DHT22;11784;49.818;8.632;2022-12-11T06:19:51;5.40;76.00
23231;DHT22;11784;49.818;8.632;2022-12-11T06:22:17;5.40;76.70
23231;DHT22;11784;49.818;8.632;2022-12-11T06:24:42;5.30;77.00
23231;DHT22;11784;49.818;8.632;2022-12-11T06:27:08;5.40;77.20
23231;DHT22;11784;49.818;8.632;2022-12-11T06:29:33;5.40;77.10
23231;DHT22;11784;49.818;8.632;2022-12-11T06:31:59;5.40;77.10
23231;DHT22;11784;49.818;8.632;2022-12-11T06:34:24;5.40;76.90
23231;DHT22;11784;49.818;8.632;2022-12-11T06:36:50;5.50;76.80
23231;DHT22;11784;49.818;8.632;2022-12-11T06:39:15;5.50;76.60
23231;DHT22;11784;49.818;8.632;2022-12-11T06:41:41;5.50;76.20
23231;DHT22;11784;49.818;8.632;2022-12-11T06:44:06;5.50;76.30
23231;DHT22;11784;49.818;8.632;2022-12-11T06:46:32;5.50;76.30
23231;DHT22;11784;49.818;8.632;2022-12-11T06:48:57;5.50;76.70
23231;DHT22;11784;49.818;8.632;2022-12-11T06:51:23;5.50;76.60
23231;DHT22;11784;49.818;8.632;2022-12-11T06:53:53;5.50;76.20
23231;DHT22;11784;49.818;8.632;2022-12-11T06:56:20;5.60;75.90
23231;DHT22;11784;49.818;8.632;2022-12-11T06:58:46;5.60;76.00
23231;DHT22;11784;49.818;8.632;2022-12-11T07:01:14;5.60;75.60
23231;DHT22;11784;49.818;8.632;2022-12-11T07:03:40;5.60;75.50
23231;DHT22;11784;49.818;8.632;2022-12-11T07:06:06;5.60;75.20
23231;DHT22;11784;49.818;8.632;2022-12-11T07:08:31;5.60;75.50
23231;DHT22;11784;49.818;8.632;2022-12-11T07:11:05;5.60;75.70
23231;DHT22;11784;49.818;8.632;2022-12-11T07:13:32;5.60;75.50
23231;DHT22;11784;49.818;8.632;2022-12-11T07:15:58;5.60;75.50
23231;DHT22;11784;49.818;8.632;2022-12-11T07:18:25;5.60;75.50
23231;DHT22;11784;49.818;8.632;2022-12-11T07:20:50;5.50;75.10
23231;DHT22;11784;49.818;8.632;2022-12-11T07:23:16;5.50;75.30
23231;DHT22;11784;49.818;8.632;2022-12-11T07:25:41;5.60;75.70
23231;DHT22;11784;49.818;8.632;2022-12-11T07:28:07;5.50;75.50
23231;DHT22;11784;49.818;8.632;2022-12-11T07:30:33;5.50;75.30
23231;DHT22;11784;49.818;8.632;2022-12-11T07:32:58;5.50;75.70
23231;DHT22;11784;49.818;8.632;2022-12-11T07:35:24;5.50;75.40
23231;DHT22;11784;49.818;8.632;2022-12-11T07:37:49;5.50;75.50
23231;DHT22;11784;49.818;8.632;2022-12-11T07:40:15;5.50;75.30
23231;DHT22;11784;49.818;8.632;2022-12-11T07:42:41;5.50;75.30
23231;DHT22;11784;49.818;8.632;2022-12-11T07:45:06;5.50;75.40
23231;DHT22;11784;49.818;8.632;2022-12-11T07:47:32;5.50;75.40
23231;DHT22;11784;49.818;8.632;2022-12-11T07:49:58;5.50;75.50
23231;DHT22;11784;49.818;8.632;2022-12-11T07:52:23;5.50;75.50
23231;DHT22;11784;49.818;8.632;2022-12-11T07:54:49;5.50;75.40
23231;DHT22;11784;49.818;8.632;2022-12-11T07:57:15;5.50;75.40
23231;DHT22;11784;49.818;8.632;2022-12-11T07:59:40;5.50;75.60
23231;DHT22;11784;49.818;8.632;2022-12-11T08:02:07;5.50;76.40
23231;DHT22;11784;49.818;8.632;2022-12-11T08:04:33;5.50;75.80
23231;DHT22;11784;49.818;8.632;2022-12-11T08:06:59;5.50;75.60
23231;DHT22;11784;49.818;8.632;2022-12-11T08:09:24;5.50;75.70
23231;DHT22;11784;49.818;8.632;2022-12-11T08:11:51;5.60;75.70
23231;DHT22;11784;49.818;8.632;2022-12-11T08:14:17;5.60;75.30
23231;DHT22;11784;49.818;8.632;2022-12-11T08:16:43;5.60;74.90
23231;DHT22;11784;49.818;8.632;2022-12-11T08:19:11;5.60;74.90
23231;DHT22;11784;49.818;8.632;2022-12-11T08:21:37;5.60;74.80
23231;DHT22;11784;49.818;8.632;2022-12-11T08:24:02;5.60;75.10
23231;DHT22;11784;49.818;8.632;2022-12-11T08:26:29;5.60;74.70
23231;DHT22;11784;49.818;8.632;2022-12-11T08:28:56;5.60;74.70
23231;DHT22;11784;49.818;8.632;2022-12-11T08:31:22;5.50;75.00
23231;DHT22;11784;49.818;8.632;2022-12-11T08:33:48;5.50;74.90
23231;DHT22;11784;49.818;8.632;2022-12-11T08:36:16;5.50;74.70
23231;DHT22;11784;49.818;8.632;2022-12-11T08:38:42;5.50;74.40
23231;DHT22;11784;49.818;8.632;2022-12-11T08:41:18;5.50;75.10
23231;DHT22;11784;49.818;8.632;2022-12-11T08:43:45;5.50;74.90
23231;DHT22;11784;49.818;8.632;2022-12-11T08:46:12;5.50;74.90
23231;DHT22;11784;49.818;8.632;2022-12-11T08:48:38;5.50;75.20
23231;DHT22;11784;49.818;8.632;2022-12-11T08:51:07;5.50;75.80
23231;DHT22;11784;49.818;8.632;2022-12-11T08:53:33;5.60;74.90
23231;DHT22;11784;49.818;8.632;2022-12-11T08:56:04;5.60;75.00
23231;DHT22;11784;49.818;8.632;2022-12-11T08:58:30;5.60;74.80
23231;DHT22;11784;49.818;8.632;2022-12-11T09:00:56;5.60;74.60
23231;DHT22;11784;49.818;8.632;2022-12-11T09:03:22;5.60;74.70
23231;DHT22;11784;49.818;8.632;2022-12-11T09:05:48;5.70;74.70
23231;DHT22;11784;49.818;8.632;2022-12-11T09:08:13;5.70;74.40
23231;DHT22;11784;49.818;8.632;2022-12-11T09:10:39;5.70;74.60
23231;DHT22;11784;49.818;8.632;2022-12-11T09:13:04;5.70;74.60
23231;DHT22;11784;49.818;8.632;2022-12-11T09:15:30;5.80;74.50
23231;DHT22;11784;49.818;8.632;2022-12-11T09:17:56;5.80;74.10
23231;DHT22;11784;49.818;8.632;2022-12-11T09:20:21;5.80;74.30
23231;DHT22;11784;49.818;8.632;2022-12-11T09:22:47;5.80;74.20
23231;DHT22;11784;49.818;8.632;2022-12-11T09:25:13;5.80;73.70
23231;DHT22;11784;49.818;8.632;2022-12-11T09:27:38;5.80;73.80
23231;DHT22;11784;49.818;8.632;2022-12-11T09:30:05;5.80;74.00
23231;DHT22;11784;49.818;8.632;2022-12-11T09:32:31;5.80;73.90
23231;DHT22;11784;49.818;8.632;2022-12-11T09:34:57;5.80;73.70
23231;DHT22;11784;49.818;8.632;2022-12-11T09:37:22;5.80;73.60
23231;DHT22;11784;49.818;8.632;2022-12-11T09:39:48;5.80;73.90
23231;DHT22;11784;49.818;8.632;2022-12-11T09:42:20;5.80;74.30
23231;DHT22;11784;49.818;8.632;2022-12-11T09:44:56;5.80;74.50
23231;DHT22;11784;49.818;8.632;2022-12-11T09:47:30;5.90;75.20
23231;DHT22;11784;49.818;8.632;2022-12-11T09:55:23;6.10;74.00
23231;DHT22;11784;49.818;8.632;2022-12-11T10:03:50;6.10;73.90
23231;DHT22;11784;49.818;8.632;2022-12-11T10:06:28;6.20;73.40
23231;DHT22;11784;49.818;8.632;2022-12-11T10:09:06;6.20;73.70
23231;DHT22;11784;49.818;8.632;2022-12-11T10:11:58;6.20;73.90
23231;DHT22;11784;49.818;8.632;2022-12-11T10:14:50;6.20;73.90
23231;DHT22;11784;49.818;8.632;2022-12-11T10:19:51;6.30;73.50
23231;DHT22;11784;49.818;8.632;2022-12-11T10:22:29;6.30;74.20
23231;DHT22;11784;49.818;8.632;2022-12-11T10:25:02;6.40;74.30
23231;DHT22;11784;49.818;8.632;2022-12-11T10:27:30;6.40;73.60
23231;DHT22;11784;49.818;8.632;2022-12-11T10:30:17;6.50;73.10
23231;DHT22;11784;49.818;8.632;2022-12-11T10:32:48;6.60;72.10
23231;DHT22;11784;49.818;8.632;2022-12-11T10:35:36;6.60;72.10
23231;DHT22;11784;49.818;8.632;2022-12-11T10:38:15;6.70;72.80
23231;DHT22;11784;49.818;8.632;2022-12-11T10:40:49;6.80;71.40
23231;DHT22;11784;49.818;8.632;2022-12-11T10:43:16;6.80;71.00
23231;DHT22;11784;49.818;8.632;2022-12-11T10:45:52;6.80;71.60
23231;DHT22;11784;49.818;8.632;2022-12-11T10:48:18;6.80;70.50
23231;DHT22;11784;49.818;8.632;2022-12-11T10:50:53;6.80;69.80
23231;DHT22;11784;49.818;8.632;2022-12-11T10:53:20;6.80;70.10
23231;DHT22;11784;49.818;8.632;2022-12-11T10:55:47;6.80;70.30
23231;DHT22;11784;49.818;8.632;2022-12-11T10:58:22;6.80;70.10
23231;DHT22;11784;49.818;8.632;2022-12-11T11:01:09;6.80;70.70
23231;DHT22;11784;49.818;8.632;2022-12-11T11:03:40;6.80;70.50
23231;DHT22;11784;49.818;8.632;2022-12-11T11:06:17;6.80;70.00
23231;DHT22;11784;49.818;8.632;2022-12-11T11:08:46;6.80;70.50
23231;DHT22;11784;49.818;8.632;2022-12-11T11:11:21;6.80;70.90
23231;DHT22;11784;49.818;8.632;2022-12-11T11:13:48;6.80;70.70
23231;DHT22;11784;49.818;8.632;2022-12-11T11:16:16;6.70;70.40
23231;DHT22;11784;49.818;8.632;2022-12-11T11:18:50;6.80;70.40
23231;DHT22;11784;49.818;8.632;2022-12-11T11:21:18;6.80;70.40
23231;DHT22;11784;49.818;8.632;2022-12-11T11:23:44;6.80;70.30
23231;DHT22;11784;49.818;8.632;2022-12-11T11:26:10;6.80;70.70
23231;DHT22;11784;49.818;8.632;2022-12-11T11:28:40;6.80;70.50
23231;DHT22;11784;49.818;8.632;2022-12-11T11:31:10;6.80;70.50
23231;DHT22;11784;49.818;8.632;2022-12-11T11:33:51;6.90;70.10
23231;DHT22;11784;49.818;8.632;2022-12-11T11:36:21;6.90;70.40
23231;DHT22;11784;49.818;8.632;2022-12-11T11:38:57;6.90;70.10
23231;DHT22;11784;49.818;8.632;2022-12-11T11:41:33;6.90;69.90
23231;DHT22;11784;49.818;8.632;2022-12-11T11:44:04;7.00;70.00
23231;DHT22;11784;49.818;8.632;2022-12-11T11:46:46;7.00;70.40
23231;DHT22;11784;49.818;8.632;2022-12-11T11:49:35;7.10;70.10
23231;DHT22;11784;49.818;8.632;2022-12-11T11:52:14;7.10;70.00
23231;DHT22;11784;49.818;8.632;2022-12-11T11:55:19;7.10;69.90
23231;DHT22;11784;49.818;8.632;2022-12-11T11:58:23;7.10;69.80
23231;DHT22;11784;49.818;8.632;2022-12-11T12:00:53;7.10;70.10
23231;DHT22;11784;49.818;8.632;2022-12-11T12:03:21;7.10;70.20
23231;DHT22;11784;49.818;8.632;2022-12-11T12:11:30;7.00;69.30
23231;DHT22;11784;49.818;8.632;2022-12-11T12:21:51;6.90;69.20
23231;DHT22;11784;49.818;8.632;2022-12-11T12:24:47;6.90;69.40
23231;DHT22;11784;49.818;8.632;2022-12-11T12:27:37;6.90;69.70
23231;DHT22;11784;49.818;8.632;2022-12-11T12:30:14;6.80;69.20
23231;DHT22;11784;49.818;8.632;2022-12-11T12:32:54;6.80;69.60
23231;DHT22;11784;49.818;8.632;2022-12-11T12:35:35;6.70;70.40
23231;DHT22;11784;49.818;8.632;2022-12-11T12:43:46;6.60;71.50
23231;DHT22;11784;49.818;8.632;2022-12-11T12:46:37;6.60;71.70
23231;DHT22;11784;49.818;8.632;2022-12-11T12:49:11;6.60;71.70
23231;DHT22;11784;49.818;8.632;2022-12-11T12:51:40;6.60;71.90
23231;DHT22;11784;49.818;8.632;2022-12-11T12:54:13;6.60;71.70
23231;DHT22;11784;49.818;8.632;2022-12-11T12:56:40;6.50;72.00
23231;DHT22;11784;49.818;8.632;2022-12-11T12:59:21;6.50;71.40
23231;DHT22;11784;49.818;8.632;2022-12-11T13:01:50;6.50;71.70
23231;DHT22;11784;49.818;8.632;2022-12-11T13:04:33;6.50;72.00
23231;DHT22;11784;49.818;8.632;2022-12-11T13:07:19;6.50;72.60
23231;DHT22;11784;49.818;8.632;2022-12-11T13:10:06;6.50;72.00
23231;DHT22;11784;49.818;8.632;2022-12-11T13:12:43;6.50;71.60
23231;DHT22;11784;49.818;8.632;2022-12-11T13:15:31;6.40;71.60
23231;DHT22;11784;49.818;8.632;2022-12-11T13:17:59;6.40;72.30
23231;DHT22;11784;49.818;8.632;2022-12-11T13:20:44;6.40;72.60
23231;DHT22;11784;49.818;8.632;2022-12-11T13:23:19;6.40;72.10
23231;DHT22;11784;49.818;8.632;2022-12-11T13:25:59;6.50;72.90
23231;DHT22;11784;49.818;8.632;2022-12-11T13:28:46;6.40;72.40
23231;DHT22;11784;49.818;8.632;2022-12-11T13:33:51;6.40;72.50
23231;DHT22;11784;49.818;8.632;2022-12-11T13:38:52;6.50;72.30
23231;DHT22;11784;49.818;8.632;2022-12-11T13:41:19;6.50;72.90
23231;DHT22;11784;49.818;8.632;2022-12-11T13:43:47;6.50;73.20
23231;DHT22;11784;49.818;8.632;2022-12-11T13:46:22;6.50;72.60
23231;DHT22;11784;49.818;8.632;2022-12-11T13:48:52;6.50;72.00
23231;DHT22;11784;49.818;8.632;2022-12-11T13:51:23;6.50;71.60
23231;DHT22;11784;49.818;8.632;2022-12-11T13:54:13;6.50;72.00
23231;DHT22;11784;49.818;8.632;2022-12-11T13:56:40;6.50;72.70
23231;DHT22;11784;49.818;8.632;2022-12-11T13:59:29;6.60;72.10
23231;DHT22;11784;49.818;8.632;2022-12-11T14:02:03;6.50;72.00
23231;DHT22;11784;49.818;8.632;2022-12-11T14:04:31;6.50;72.70
23231;DHT22;11784;49.818;8.632;2022-12-11T14:06:57;6.50;72.10
23231;DHT22;11784;49.818;8.632;2022-12-11T14:09:24;6.50;71.60
23231;DHT22;11784;49.818;8.632;2022-12-11T14:11:51;6.50;71.30
23231;DHT22;11784;49.818;8.632;2022-12-11T14:14:28;6.50;71.70
23231;DHT22;11784;49.818;8.632;2022-12-11T14:16:56;6.50;72.90
23231;DHT22;11784;49.818;8.632;2022-12-11T14:19:22;6.50;72.80
23231;DHT22;11784;49.818;8.632;2022-12-11T14:22:03;6.50;72.80
23231;DHT22;11784;49.818;8.632;2022-12-11T14:24:30;6.50;72.50
23231;DHT22;11784;49.818;8.632;2022-12-11T14:26:56;6.50;72.00
23231;DHT22;11784;49.818;8.632;2022-12-11T14:29:30;6.50;71.90
23231;DHT22;11784;49.818;8.632;2022-12-11T14:32:00;6.50;71.60
23231;DHT22;11784;49.818;8.632;2022-12-11T14:34:46;6.40;71.70
23231;DHT22;11784;49.818;8.632;2022-12-11T14:37:15;6.40;71.70
23231;DHT22;11784;49.818;8.632;2022-12-11T14:40:06;6.40;71.70
23231;DHT22;11784;49.818;8.632;2022-12-11T14:42:37;6.40;71.90
23231;DHT22;11784;49.818;8.632;2022-12-11T14:47:36;6.30;72.10
23231;DHT22;11784;49.818;8.632;2022-12-11T14:50:12;6.30;72.40
23231;DHT22;11784;49.818;8.632;2022-12-11T14:52:47;6.30;72.60
23231;DHT22;11784;49.818;8.632;2022-12-11T14:55:19;6.30;73.20
23231;DHT22;11784;49.818;8.632;2022-12-11T14:57:49;6.30;73.20
23231;DHT22;11784;49.818;8.632;2022-12-11T15:00:30;6.30;72.30
23231;DHT22;11784;49.818;8.632;2022-12-11T15:03:04;6.30;72.50
23231;DHT22;11784;49.818;8.632;2022-12-11T15:05:31;6.30;72.10
23231;DHT22;11784;49.818;8.632;2022-12-11T15:08:01;6.30;72.60
23231;DHT22;11784;49.818;8.632;2022-12-11T15:10:34;6.30;72.20
23231;DHT22;11784;49.818;8.632;2022-12-11T15:13:02;6.20;73.00
23231;DHT22;11784;49.818;8.632;2022-12-11T15:15:33;6.20;72.70
23231;DHT22;11784;49.818;8.632;2022-12-11T15:18:05;6.20;72.70
23231;DHT22;11784;49.818;8.632;2022-12-11T15:20:38;6.20;72.80
23231;DHT22;11784;49.818;8.632;2022-12-11T15:23:06;6.20;72.80
23231;DHT22;11784;49.818;8.632;2022-12-11T15:25:32;6.20;72.90
23231;DHT22;11784;49.818;8.632;2022-12-11T15:27:59;6.20;73.20
23231;DHT22;11784;49.818;8.632;2022-12-11T15:30:27;6.20;73.30
23231;DHT22;11784;49.818;8.632;2022-12-11T15:35:36;6.20;74.00
23231;DHT22;11784;49.818;8.632;2022-12-11T15:38:02;6.20;73.80
23231;DHT22;11784;49.818;8.632;2022-12-11T15:40:28;6.20;73.90
23231;DHT22;11784;49.818;8.632;2022-12-11T15:42:54;6.10;74.00
23231;DHT22;11784;49.818;8.632;2022-12-11T15:45:22;6.10;74.10
23231;DHT22;11784;49.818;8.632;2022-12-11T15:47:49;6.10;74.40
23231;DHT22;11784;49.818;8.632;2022-12-11T15:50:21;6.20;74.10
23231;DHT22;11784;49.818;8.632;2022-12-11T15:52:49;6.20;73.90
23231;DHT22;11784;49.818;8.632;2022-12-11T15:55:15;6.10;73.50
23231;DHT22;11784;49.818;8.632;2022-12-11T15:57:45;6.10;73.50
23231;DHT22;11784;49.818;8.632;2022-12-11T16:00:17;6.10;74.00
23231;DHT22;11784;49.818;8.632;2022-12-11T16:02:46;6.10;74.70
23231;DHT22;11784;49.818;8.632;2022-12-11T16:05:12;6.10;74.80
23231;DHT22;11784;49.818;8.632;2022-12-11T16:07:38;6.10;74.80
23231;DHT22;11784;49.818;8.632;2022-12-11T16:10:05;6.20;75.00
23231;DHT22;11784;49.818;8.632;2022-12-11T16:12:31;6.20;74.80
23231;DHT22;11784;49.818;8.632;2022-12-11T16:14:57;6.20;74.70
23231;DHT22;11784;49.818;8.632;2022-12-11T16:17:22;6.20;74.60
23231;DHT22;11784;49.818;8.632;2022-12-11T16:19:48;6.20;74.90
23231;DHT22;11784;49.818;8.632;2022-12-11T16:22:13;6.20;74.90
23231;DHT22;11784;49.818;8.632;2022-12-11T16:24:39;6.20;74.80
23231;DHT22;11784;49.818;8.632;2022-12-11T16:27:06;6.20;74.70
23231;DHT22;11784;49.818;8.632;2022-12-11T16:29:38;6.20;75.00
23231;DHT22;11784;49.818;8.632;2022-12-11T16:32:05;6.20;75.00
23231;DHT22;11784;49.818;8.632;2022-12-11T16:34:32;6.20;75.10
23231;DHT22;11784;49.818;8.632;2022-12-11T16:36:58;6.20;75.20
23231;DHT22;11784;49.818;8.632;2022-12-11T16:39:24;6.20;75.10
23231;DHT22;11784;49.818;8.632;2022-12-11T16:41:50;6.20;74.10
23231;DHT22;11784;49.818;8.632;2022-12-11T16:44:19;6.30;74.00
23231;DHT22;11784;49.818;8.632;2022-12-11T16:46:45;6.20;74.30
23231;DHT22;11784;49.818;8.632;2022-12-11T16:49:13;6.20;74.80
23231;DHT22;11784;49.818;8.632;2022-12-11T16:51:40;6.20;75.00
23231;DHT22;11784;49.818;8.632;2022-12-11T16:54:05;6.20;75.10
23231;DHT22;11784;49.818;8.632;2022-12-11T16:56:31;6.20;75.10